createdAt,value
2022-12-20T00:00:52.420Z,81.13
2022-12-20T00:01:56.437Z,81.27
2022-12-20T00:03:00.535Z,81.31
2022-12-20T00:04:13.125Z,81.41
2022-12-20T00:05:16.827Z,81.30
2022-12-20T00:06:22.271Z,81.42
2022-12-20T00:07:26.003Z,81.21
2022-12-20T00:08:30.075Z,81.29
2022-12-20T00:09:33.659Z,81.30
2022-12-20T00:10:43.736Z,81.21
2022-12-20T00:11:48.071Z,81.47
2022-12-20T00:12:52.003Z,81.37
2022-12-20T00:13:56.415Z,81.47
2022-12-20T00:15:00.283Z,81.71
2022-12-20T00:16:15.246Z,81.52
2022-12-20T00:17:18.988Z,81.64
2022-12-20T00:18:23.210Z,81.47
2022-12-20T00:19:27.047Z,81.74
2022-12-20T00:20:31.468Z,81.49
2022-12-20T00:21:36.513Z,81.58
2022-12-20T00:22:40.538Z,81.55
2022-12-20T00:23:44.307Z,81.33
2022-12-20T00:24:48.720Z,81.29
2022-12-20T00:25:52.587Z,81.64
2022-12-20T00:26:58.751Z,81.52
2022-12-20T00:28:06.599Z,81.56
2022-12-20T00:29:10.810Z,81.49
2022-12-20T00:30:16.282Z,81.53
2022-12-20T00:31:23.344Z,81.69
2022-12-20T00:32:28.161Z,81.44
2022-12-20T00:33:35.159Z,81.80
2022-12-20T00:34:38.973Z,81.67
2022-12-20T00:35:43.540Z,81.96
2022-12-20T00:36:47.515Z,81.85
2022-12-20T00:37:51.135Z,81.86
2022-12-20T00:38:57.567Z,81.99
2022-12-20T00:40:01.335Z,81.78
2022-12-20T00:41:15.791Z,82.00
2022-12-20T00:42:20.369Z,82.11
2022-12-20T00:43:24.736Z,82.00
2022-12-20T00:44:35.143Z,82.00
2022-12-20T00:45:39.487Z,82.36
2022-12-20T00:46:43.750Z,82.39
2022-12-20T00:47:47.310Z,82.06
2022-12-20T00:48:52.452Z,82.15
2022-12-20T00:49:56.429Z,82.39
2022-12-20T00:51:13.523Z,82.14
2022-12-20T00:52:17.871Z,82.00
2022-12-20T00:53:26.348Z,82.19
2022-12-20T00:54:30.801Z,82.17
2022-12-20T00:55:34.916Z,82.17
2022-12-20T00:56:42.225Z,82.19
2022-12-20T00:57:48.933Z,82.14
2022-12-20T00:58:53.595Z,81.98
2022-12-20T00:59:57.416Z,81.84
2022-12-20T01:01:01.880Z,81.89
2022-12-20T01:02:06.101Z,81.96
2022-12-20T01:03:10.851Z,82.03
2022-12-20T01:04:15.217Z,81.99
2022-12-20T01:05:22.119Z,81.73
2022-12-20T01:06:26.748Z,81.99
2022-12-20T01:07:30.628Z,82.08
2022-12-20T01:08:34.728Z,81.88
2022-12-20T01:09:39.714Z,81.66
2022-12-20T01:10:43.246Z,81.59
2022-12-20T01:11:46.840Z,81.82
2022-12-20T01:12:51.047Z,81.71
2022-12-20T01:13:57.838Z,81.76
2022-12-20T01:15:01.506Z,81.67
2022-12-20T01:16:16.326Z,81.60
2022-12-20T01:17:20.314Z,81.72
2022-12-20T01:18:23.959Z,81.67
2022-12-20T01:19:27.791Z,81.54
2022-12-20T01:20:31.484Z,81.46
2022-12-20T01:21:36.265Z,81.34
2022-12-20T01:22:45.552Z,81.55
2022-12-20T01:23:52.649Z,81.54
2022-12-20T01:24:56.570Z,81.39
2022-12-20T01:26:02.745Z,81.25
2022-12-20T01:27:06.727Z,81.36
2022-12-20T01:28:10.401Z,81.35
2022-12-20T01:29:15.115Z,81.76
2022-12-20T01:30:19.062Z,81.83
2022-12-20T01:31:24.518Z,81.80
2022-12-20T01:32:28.233Z,81.94
2022-12-20T01:33:32.097Z,81.78
2022-12-20T01:34:35.818Z,81.90
2022-12-20T01:35:39.473Z,81.84
2022-12-20T01:36:43.222Z,82.22
2022-12-20T01:37:46.955Z,82.24
2022-12-20T01:38:51.267Z,82.13
2022-12-20T01:39:54.803Z,82.48
2022-12-20T01:40:59.999Z,82.29
2022-12-20T01:42:05.379Z,82.67
2022-12-20T01:43:15.728Z,82.72
2022-12-20T01:44:19.623Z,82.82
2022-12-20T01:45:31.269Z,82.98
2022-12-20T01:46:39.749Z,82.92
2022-12-20T01:47:43.708Z,83.05
2022-12-20T01:49:08.379Z,83.36
2022-12-20T01:50:12.457Z,83.19
2022-12-20T01:51:17.412Z,83.36
2022-12-20T01:52:36.279Z,84.06
2022-12-20T01:53:40.384Z,84.11
2022-12-20T01:55:11.129Z,84.43
2022-12-20T01:56:15.069Z,84.42
2022-12-20T01:57:29.906Z,84.67
2022-12-20T01:58:36.014Z,84.75
2022-12-20T01:59:47.185Z,85.53
2022-12-20T02:00:50.853Z,85.21
2022-12-20T02:02:02.260Z,85.24
2022-12-20T02:03:11.619Z,85.67
2022-12-20T02:04:15.236Z,85.48
2022-12-20T02:05:23.938Z,85.79
2022-12-20T02:06:28.287Z,85.81
2022-12-20T02:07:36.254Z,85.48
2022-12-20T02:08:40.011Z,85.32
2022-12-20T02:09:44.556Z,85.30
2022-12-20T02:12:00.665Z,85.45
2022-12-20T02:13:28.973Z,85.74
2022-12-20T02:14:45.080Z,85.68
2022-12-20T02:16:00.445Z,85.72
2022-12-20T02:17:57.210Z,85.68
2022-12-20T02:19:31.255Z,85.67
2022-12-20T02:21:23.654Z,86.01
2022-12-20T02:22:57.898Z,85.61
2022-12-20T02:24:10.048Z,85.72
2022-12-20T02:25:28.496Z,85.70
2022-12-20T02:27:18.589Z,85.57
2022-12-20T02:29:01.869Z,85.71
2022-12-20T02:30:22.652Z,85.63
2022-12-20T02:31:58.109Z,85.91
2022-12-20T02:33:07.682Z,86.43
2022-12-20T02:34:12.915Z,87.15
2022-12-20T02:35:26.175Z,87.06
2022-12-20T02:36:30.368Z,86.99
2022-12-20T02:37:34.363Z,87.21
2022-12-20T02:38:39.081Z,86.97
2022-12-20T02:39:46.376Z,86.53
2022-12-20T02:40:54.319Z,86.69
2022-12-20T02:42:27.129Z,86.50
2022-12-20T02:43:52.940Z,86.32
2022-12-20T02:45:18.341Z,86.16
2022-12-20T02:46:26.733Z,86.26
2022-12-20T02:48:05.312Z,86.12
2022-12-20T02:49:21.391Z,86.20
2022-12-20T02:50:36.453Z,86.22
2022-12-20T02:51:45.421Z,86.11
2022-12-20T02:52:51.157Z,85.70
2022-12-20T02:53:55.787Z,85.54
2022-12-20T02:55:01.162Z,85.88
2022-12-20T02:56:28.016Z,85.91
2022-12-20T02:58:02.878Z,85.79
2022-12-20T02:59:20.038Z,85.62
2022-12-20T03:00:24.492Z,85.62
2022-12-20T03:02:03.986Z,85.62
2022-12-20T03:03:23.298Z,85.55
2022-12-20T03:04:35.508Z,85.70
2022-12-20T03:05:49.127Z,85.30
2022-12-20T03:07:12.885Z,85.47
2022-12-20T03:08:17.910Z,85.36
2022-12-20T03:09:21.526Z,85.72
2022-12-20T03:10:25.330Z,85.50
2022-12-20T03:11:29.193Z,85.68
2022-12-20T03:12:32.817Z,85.93
2022-12-20T03:13:36.416Z,85.38
2022-12-20T03:14:40.724Z,85.57
2022-12-20T03:15:44.774Z,85.60
2022-12-20T03:16:48.750Z,85.53
2022-12-20T03:17:52.476Z,85.71
2022-12-20T03:18:56.066Z,85.31
2022-12-20T03:19:59.778Z,85.27
2022-12-20T03:21:04.019Z,85.10
2022-12-20T03:22:13.072Z,85.25
2022-12-20T03:23:16.905Z,85.25
2022-12-20T03:24:23.295Z,85.37
2022-12-20T03:25:27.955Z,85.32
2022-12-20T03:26:32.027Z,85.14
2022-12-20T03:27:35.813Z,84.93
2022-12-20T03:28:39.773Z,85.15
2022-12-20T03:29:45.048Z,84.88
2022-12-20T03:30:49.447Z,84.95
2022-12-20T03:31:53.613Z,85.44
2022-12-20T03:32:58.029Z,85.03
2022-12-20T03:34:02.029Z,85.16
2022-12-20T03:35:06.749Z,85.17
2022-12-20T03:36:10.676Z,85.26
2022-12-20T03:37:14.452Z,85.40
2022-12-20T03:38:18.165Z,85.30
2022-12-20T03:39:22.437Z,85.27
2022-12-20T03:40:26.525Z,85.20
2022-12-20T03:41:30.474Z,85.30
2022-12-20T03:42:34.549Z,85.49
2022-12-20T03:43:38.335Z,85.54
2022-12-20T03:44:42.625Z,85.48
2022-12-20T03:45:46.487Z,85.67
2022-12-20T03:46:50.301Z,85.87
2022-12-20T03:47:54.041Z,85.76
2022-12-20T03:48:57.855Z,85.83
2022-12-20T03:50:01.643Z,85.53
2022-12-20T03:51:05.737Z,85.81
2022-12-20T03:52:13.228Z,85.98
2022-12-20T03:53:16.899Z,85.57
2022-12-20T03:54:21.205Z,85.91
2022-12-20T03:55:25.052Z,85.64
2022-12-20T03:56:28.876Z,85.88
2022-12-20T03:57:32.523Z,85.88
2022-12-20T03:58:36.178Z,86.04
2022-12-20T03:59:40.348Z,85.75
2022-12-20T04:00:44.139Z,85.68
2022-12-20T04:01:48.248Z,85.79
2022-12-20T04:02:52.623Z,85.65
2022-12-20T04:03:57.504Z,85.50
2022-12-20T04:05:01.270Z,85.42
2022-12-20T04:06:05.430Z,85.28
2022-12-20T04:07:09.534Z,85.53
2022-12-20T04:08:13.210Z,85.64
2022-12-20T04:09:16.967Z,85.42
2022-12-20T04:10:24.035Z,85.42
2022-12-20T04:11:28.096Z,85.42
2022-12-20T04:12:31.754Z,85.38
2022-12-20T04:13:35.547Z,85.11
2022-12-20T04:14:39.073Z,85.28
2022-12-20T04:15:42.775Z,85.09
2022-12-20T04:16:46.984Z,85.13
2022-12-20T04:17:50.864Z,85.28
2022-12-20T04:18:55.015Z,85.02
2022-12-20T04:19:58.683Z,84.95
2022-12-20T04:21:09.956Z,84.84
2022-12-20T04:22:14.196Z,84.86
2022-12-20T04:23:18.172Z,84.69
2022-12-20T04:24:22.551Z,84.86
2022-12-20T04:25:26.211Z,84.64
2022-12-20T04:26:30.541Z,84.73
2022-12-20T04:27:34.300Z,84.58
2022-12-20T04:28:37.922Z,84.61
2022-12-20T04:29:41.576Z,84.43
2022-12-20T04:30:45.479Z,84.55
2022-12-20T04:31:49.630Z,85.00
2022-12-20T04:32:54.973Z,85.01
2022-12-20T04:33:58.953Z,84.79
2022-12-20T04:35:04.194Z,84.77
2022-12-20T04:36:08.132Z,84.87
2022-12-20T04:37:12.249Z,85.16
2022-12-20T04:38:16.449Z,84.96
2022-12-20T04:39:20.190Z,85.31
2022-12-20T04:40:24.021Z,85.13
2022-12-20T04:41:27.721Z,85.25
2022-12-20T04:42:31.729Z,85.31
2022-12-20T04:43:35.396Z,85.08
2022-12-20T04:44:39.169Z,85.45
2022-12-20T04:45:44.287Z,85.47
2022-12-20T04:46:47.930Z,85.41
2022-12-20T04:47:51.757Z,85.46
2022-12-20T04:49:07.415Z,85.68
2022-12-20T04:50:11.521Z,85.66
2022-12-20T04:51:16.686Z,85.85
2022-12-20T04:52:45.551Z,85.76
2022-12-20T04:53:52.645Z,85.67
2022-12-20T04:54:56.416Z,85.56
2022-12-20T04:56:00.738Z,85.85
2022-12-20T04:57:07.998Z,85.76
2022-12-20T04:58:11.834Z,85.77
2022-12-20T04:59:15.571Z,86.08
2022-12-20T05:00:19.919Z,86.15
2022-12-20T05:01:24.424Z,86.17
2022-12-20T05:02:28.279Z,85.95
2022-12-20T05:03:32.190Z,86.26
2022-12-20T05:04:37.766Z,86.30
2022-12-20T05:05:41.661Z,86.23
2022-12-20T05:06:45.358Z,86.24
2022-12-20T05:07:49.226Z,86.00
2022-12-20T05:08:52.840Z,85.86
2022-12-20T05:09:56.825Z,85.96
2022-12-20T05:11:00.914Z,85.82
2022-12-20T05:12:05.021Z,85.71
2022-12-20T05:13:09.757Z,85.79
2022-12-20T05:14:13.340Z,85.77
2022-12-20T05:15:17.127Z,85.84
2022-12-20T05:16:21.539Z,85.86
2022-12-20T05:17:26.042Z,85.81
2022-12-20T05:18:30.038Z,85.91
2022-12-20T05:19:38.555Z,85.82
2022-12-20T05:20:42.441Z,85.95
2022-12-20T05:22:04.773Z,85.60
2022-12-20T05:23:30.887Z,85.66
2022-12-20T05:24:53.064Z,85.70
2022-12-20T05:26:15.778Z,85.47
2022-12-20T05:27:19.283Z,85.57
2022-12-20T05:28:22.880Z,85.52
2022-12-20T05:29:26.836Z,85.95
2022-12-20T05:30:30.847Z,85.88
2022-12-20T05:31:34.991Z,86.11
2022-12-20T05:32:40.239Z,85.90
2022-12-20T05:33:44.136Z,85.72
2022-12-20T05:34:47.967Z,85.78
2022-12-20T05:35:51.762Z,86.00
2022-12-20T05:36:55.438Z,85.52
2022-12-20T05:37:59.004Z,85.93
2022-12-20T05:39:04.541Z,85.69
2022-12-20T05:40:12.592Z,85.21
2022-12-20T05:41:16.215Z,85.56
2022-12-20T05:42:21.473Z,85.39
2022-12-20T05:43:26.292Z,85.33
2022-12-20T05:44:31.481Z,85.21
2022-12-20T05:45:35.883Z,85.24
2022-12-20T05:46:39.630Z,85.15
2022-12-20T05:47:46.109Z,85.09
2022-12-20T05:48:49.849Z,85.38
2022-12-20T05:49:53.710Z,85.27
2022-12-20T05:50:57.848Z,85.41
2022-12-20T05:52:03.220Z,85.43
2022-12-20T05:53:15.018Z,85.52
2022-12-20T05:54:18.601Z,85.17
2022-12-20T05:55:22.274Z,85.24
2022-12-20T05:56:25.971Z,85.00
2022-12-20T05:57:29.744Z,84.74
2022-12-20T05:58:34.084Z,84.66
2022-12-20T05:59:37.648Z,84.76
2022-12-20T06:00:45.283Z,84.78
2022-12-20T06:01:48.941Z,84.70
2022-12-20T06:02:52.826Z,84.46
2022-12-20T06:03:57.089Z,84.69
2022-12-20T06:05:00.889Z,84.63
2022-12-20T06:06:14.153Z,84.69
2022-12-20T06:07:22.212Z,84.65
2022-12-20T06:08:26.165Z,85.05
2022-12-20T06:09:30.786Z,85.33
2022-12-20T06:10:35.261Z,85.12
2022-12-20T06:11:39.166Z,84.77
2022-12-20T06:12:43.212Z,84.80
2022-12-20T06:13:47.457Z,84.68
2022-12-20T06:14:51.607Z,84.93
2022-12-20T06:15:55.554Z,85.03
2022-12-20T06:16:59.241Z,85.07
2022-12-20T06:18:03.801Z,84.80
2022-12-20T06:19:09.255Z,84.66
2022-12-20T06:20:13.354Z,84.82
2022-12-20T06:21:20.235Z,85.41
2022-12-20T06:22:23.849Z,85.76
2022-12-20T06:23:27.974Z,85.70
2022-12-20T06:24:31.984Z,85.51
2022-12-20T06:25:36.031Z,85.60
2022-12-20T06:26:40.072Z,85.58
2022-12-20T06:27:44.020Z,85.69
2022-12-20T06:28:52.515Z,85.64
2022-12-20T06:29:56.499Z,85.79
2022-12-20T06:31:03.331Z,85.70
2022-12-20T06:32:11.438Z,85.70
2022-12-20T06:33:15.643Z,85.77
2022-12-20T06:34:22.442Z,85.83
2022-12-20T06:35:26.279Z,85.67
2022-12-20T06:36:33.299Z,86.05
2022-12-20T06:37:37.108Z,86.18
2022-12-20T06:38:40.758Z,86.00
2022-12-20T06:39:44.249Z,85.95
2022-12-20T06:40:47.833Z,85.78
2022-12-20T06:41:52.051Z,86.14
2022-12-20T06:42:55.604Z,86.12
2022-12-20T06:43:59.663Z,86.01
2022-12-20T06:45:04.896Z,85.87
2022-12-20T06:46:08.831Z,85.86
2022-12-20T06:47:12.694Z,85.88
2022-12-20T06:48:16.526Z,86.10
2022-12-20T06:49:20.202Z,86.08
2022-12-20T06:50:24.582Z,86.00
2022-12-20T06:51:28.229Z,85.78
2022-12-20T06:52:32.355Z,85.80
2022-12-20T06:53:36.226Z,85.68
2022-12-20T06:54:40.711Z,85.90
2022-12-20T06:55:44.378Z,85.86
2022-12-20T06:56:48.151Z,85.76
2022-12-20T06:57:52.872Z,85.76
2022-12-20T06:58:56.635Z,86.09
2022-12-20T07:00:00.568Z,85.83
2022-12-20T07:01:06.474Z,85.60
2022-12-20T07:02:12.513Z,86.13
2022-12-20T07:03:16.860Z,85.96
2022-12-20T07:04:21.035Z,85.94
2022-12-20T07:05:24.854Z,86.07
2022-12-20T07:06:29.683Z,86.06
2022-12-20T07:07:37.272Z,86.25
2022-12-20T07:08:44.881Z,86.33
2022-12-20T07:09:48.496Z,86.02
2022-12-20T07:10:53.019Z,85.99
2022-12-20T07:11:57.928Z,85.96
2022-12-20T07:13:01.574Z,85.67
2022-12-20T07:14:05.395Z,85.46
2022-12-20T07:15:10.049Z,85.77
2022-12-20T07:16:14.845Z,85.65
2022-12-20T07:17:18.532Z,85.69
2022-12-20T07:18:22.094Z,85.46
2022-12-20T07:19:26.003Z,85.28
2022-12-20T07:20:30.971Z,85.40
2022-12-20T07:21:34.802Z,85.23
2022-12-20T07:22:38.445Z,85.38
2022-12-20T07:23:42.154Z,85.08
2022-12-20T07:24:46.614Z,85.06
2022-12-20T07:25:59.040Z,85.12
2022-12-20T07:27:03.128Z,85.15
2022-12-20T07:28:07.001Z,85.12
2022-12-20T07:30:34.228Z,85.10
2022-12-20T07:31:38.064Z,84.77
2022-12-20T07:32:41.676Z,85.11
2022-12-20T07:33:45.373Z,84.88
2022-12-20T07:34:49.096Z,84.76
2022-12-20T07:35:54.926Z,84.67
2022-12-20T07:36:59.032Z,84.54
2022-12-20T07:38:03.004Z,84.58
2022-12-20T07:39:07.037Z,84.55
2022-12-20T07:40:14.960Z,84.64
2022-12-20T07:41:19.732Z,84.40
2022-12-20T07:42:31.837Z,84.48
2022-12-20T07:43:39.639Z,84.45
2022-12-20T07:44:44.192Z,84.74
2022-12-20T07:45:47.852Z,84.40
2022-12-20T07:46:52.061Z,84.21
2022-12-20T07:47:58.401Z,84.37
2022-12-20T07:49:05.931Z,84.48
2022-12-20T07:50:10.540Z,84.25
2022-12-20T07:51:28.372Z,84.16
2022-12-20T07:52:35.103Z,84.41
2022-12-20T07:53:50.394Z,84.27
2022-12-20T07:55:03.433Z,84.16
2022-12-20T07:56:10.744Z,84.07
2022-12-20T07:57:29.733Z,83.85
2022-12-20T07:58:37.836Z,84.00
2022-12-20T07:59:48.719Z,83.85
2022-12-20T08:00:52.626Z,83.76
2022-12-20T08:02:04.006Z,83.99
2022-12-20T08:03:29.124Z,84.07
2022-12-20T08:04:35.092Z,83.78
2022-12-20T08:05:45.622Z,83.49
2022-12-20T08:06:52.228Z,83.87
2022-12-20T08:07:59.929Z,83.66
2022-12-20T08:09:06.809Z,83.38
2022-12-20T08:10:14.424Z,83.61
2022-12-20T08:11:21.136Z,83.21
2022-12-20T08:12:30.850Z,83.46
2022-12-20T08:13:38.129Z,83.22
2022-12-20T08:14:45.409Z,83.14
2022-12-20T08:15:49.696Z,83.01
2022-12-20T08:16:53.871Z,83.50
2022-12-20T08:17:58.145Z,83.08
2022-12-20T08:19:01.886Z,83.21
2022-12-20T08:20:07.074Z,82.94
2022-12-20T08:21:13.406Z,82.73
2022-12-20T08:22:17.715Z,82.61
2022-12-20T08:23:22.011Z,82.64
2022-12-20T08:24:25.666Z,82.64
2022-12-20T08:25:29.428Z,82.91
2022-12-20T08:26:40.270Z,82.37
2022-12-20T08:27:44.856Z,82.34
2022-12-20T08:28:48.610Z,82.45
2022-12-20T08:29:52.607Z,82.25
2022-12-20T08:31:05.833Z,82.36
2022-12-20T08:32:11.117Z,81.80
2022-12-20T08:33:14.767Z,81.75
2022-12-20T08:34:18.893Z,81.80
2022-12-20T08:35:23.663Z,81.68
2022-12-20T08:36:27.795Z,81.34
2022-12-20T08:37:31.895Z,81.48
2022-12-20T08:38:36.289Z,81.60
2022-12-20T08:39:39.782Z,81.21
2022-12-20T08:40:43.327Z,81.36
2022-12-20T08:41:46.992Z,81.18
2022-12-20T08:42:51.021Z,81.51
2022-12-20T08:43:54.526Z,81.41
2022-12-20T08:44:58.560Z,81.56
2022-12-20T08:46:02.861Z,81.30
2022-12-20T08:47:06.552Z,81.56
2022-12-20T08:48:10.656Z,81.50
2022-12-20T08:49:14.294Z,81.25
2022-12-20T08:50:17.871Z,81.51
2022-12-20T08:51:21.986Z,81.13
2022-12-20T08:52:25.523Z,81.12
2022-12-20T08:53:30.538Z,81.24
2022-12-20T08:54:34.250Z,80.92
2022-12-20T08:55:38.063Z,80.90
2022-12-20T08:56:41.899Z,81.06
2022-12-20T08:57:45.508Z,80.83
2022-12-20T08:58:49.743Z,80.79
2022-12-20T08:59:53.222Z,80.52
2022-12-20T09:01:06.205Z,80.90
2022-12-20T09:02:10.543Z,80.65
2022-12-20T09:03:15.583Z,80.84
2022-12-20T09:04:19.893Z,80.67
2022-12-20T09:05:24.782Z,80.77
2022-12-20T09:06:28.642Z,80.85
2022-12-20T09:07:32.628Z,80.92
2022-12-20T09:08:39.333Z,81.13
2022-12-20T09:09:43.018Z,81.02
2022-12-20T09:10:46.585Z,81.05
2022-12-20T09:11:50.255Z,80.91
2022-12-20T09:12:54.226Z,80.57
2022-12-20T09:13:59.882Z,80.71
2022-12-20T09:15:04.563Z,80.42
2022-12-20T09:16:09.319Z,80.35
2022-12-20T09:17:13.041Z,80.24
2022-12-20T09:18:16.734Z,79.74
2022-12-20T09:19:20.535Z,79.71
2022-12-20T09:20:24.794Z,79.78
2022-12-20T09:21:29.103Z,79.96
2022-12-20T09:22:33.273Z,80.31
2022-12-20T09:23:38.570Z,80.01
2022-12-20T09:24:42.203Z,79.98
2022-12-20T09:25:50.338Z,80.07
2022-12-20T09:26:57.396Z,80.25
2022-12-20T09:28:01.021Z,80.34
2022-12-20T09:29:05.563Z,80.28
2022-12-20T09:30:09.782Z,79.96
2022-12-20T09:31:17.157Z,80.02
2022-12-20T09:32:21.015Z,79.99
2022-12-20T09:33:24.518Z,79.70
2022-12-20T09:34:28.027Z,79.98
2022-12-20T09:35:33.844Z,79.63
2022-12-20T09:36:38.630Z,79.56
2022-12-20T09:37:42.251Z,79.23
2022-12-20T09:38:47.640Z,79.07
2022-12-20T09:39:51.789Z,78.87
2022-12-20T09:41:01.848Z,78.90
2022-12-20T09:42:09.796Z,78.35
2022-12-20T09:43:17.021Z,78.50
2022-12-20T09:44:29.664Z,78.50
2022-12-20T09:45:37.507Z,78.64
2022-12-20T09:46:43.431Z,78.61
2022-12-20T09:47:47.706Z,78.08
2022-12-20T09:48:51.814Z,78.10
2022-12-20T09:49:58.019Z,78.04
2022-12-20T09:51:16.771Z,77.71
2022-12-20T09:52:53.157Z,77.43
2022-12-20T09:54:26.919Z,77.83
2022-12-20T09:55:59.324Z,77.69
2022-12-20T09:57:29.466Z,77.44
2022-12-20T09:58:58.404Z,77.34
2022-12-20T10:00:02.192Z,77.57
2022-12-20T10:01:34.400Z,76.95
2022-12-20T10:02:58.897Z,77.10
2022-12-20T10:04:18.959Z,77.02
2022-12-20T10:05:55.152Z,76.64
2022-12-20T10:07:53.708Z,76.66
2022-12-20T10:09:13.268Z,76.84
2022-12-20T10:10:51.637Z,76.50
2022-12-20T10:12:12.257Z,76.55
2022-12-20T10:13:53.896Z,76.50
2022-12-20T10:15:18.103Z,76.44
2022-12-20T10:16:45.168Z,76.28
2022-12-20T10:18:47.000Z,76.49
2022-12-20T10:20:06.737Z,76.39
2022-12-20T10:21:58.378Z,76.54
2022-12-20T10:23:30.967Z,75.74
2022-12-20T10:24:41.415Z,76.32
2022-12-20T10:25:47.689Z,75.93
2022-12-20T10:26:52.022Z,76.10
2022-12-20T10:28:00.892Z,76.24
2022-12-20T10:29:05.075Z,76.42
2022-12-20T10:30:35.674Z,76.39
2022-12-20T10:31:40.481Z,76.22
2022-12-20T10:32:51.199Z,76.31
2022-12-20T10:33:55.244Z,75.91
2022-12-20T10:35:19.155Z,75.42
2022-12-20T10:36:29.470Z,75.51
2022-12-20T10:37:33.243Z,75.72
2022-12-20T10:38:49.769Z,76.07
2022-12-20T10:39:53.628Z,76.09
2022-12-20T10:41:21.333Z,75.86
2022-12-20T10:42:40.962Z,75.74
2022-12-20T10:43:52.114Z,75.46
2022-12-20T10:44:57.981Z,74.84
2022-12-20T10:46:08.527Z,74.78
2022-12-20T10:47:41.441Z,74.28
2022-12-20T10:48:48.833Z,74.72
2022-12-20T10:49:52.457Z,74.80
2022-12-20T10:51:19.986Z,74.14
2022-12-20T10:52:23.568Z,74.27
2022-12-20T10:53:28.873Z,74.21
2022-12-20T10:54:40.964Z,73.86
2022-12-20T10:55:45.266Z,74.17
2022-12-20T10:56:59.412Z,73.96
2022-12-20T10:58:15.384Z,73.72
2022-12-20T10:59:19.233Z,73.51
2022-12-20T11:00:31.357Z,73.61
2022-12-20T11:01:37.939Z,72.92
2022-12-20T11:02:42.876Z,73.20
2022-12-20T11:04:42.515Z,73.02
2022-12-20T11:05:58.993Z,73.21
2022-12-20T11:07:24.776Z,73.39
2022-12-20T11:08:41.159Z,73.51
2022-12-20T11:09:57.158Z,73.76
2022-12-20T11:11:27.603Z,73.67
2022-12-20T11:12:31.491Z,73.51
2022-12-20T11:13:34.962Z,73.86
2022-12-20T11:14:44.073Z,73.57
2022-12-20T11:15:57.289Z,73.54
2022-12-20T11:17:23.771Z,73.74
2022-12-20T11:18:27.259Z,73.76
2022-12-20T11:19:42.988Z,74.16
2022-12-20T11:20:52.703Z,74.26
2022-12-20T11:22:37.904Z,74.31
2022-12-20T11:24:10.396Z,74.09
2022-12-20T11:25:34.872Z,74.38
2022-12-20T11:26:59.166Z,74.78
2022-12-20T11:28:31.001Z,74.58
2022-12-20T11:30:20.766Z,75.21
2022-12-20T11:31:36.579Z,75.74
2022-12-20T11:33:10.835Z,75.61
2022-12-20T11:34:32.179Z,75.63
2022-12-20T11:35:56.048Z,75.57
2022-12-20T11:37:26.210Z,75.58
2022-12-20T11:39:16.199Z,75.48
2022-12-20T11:40:50.942Z,75.52
2022-12-20T11:42:43.088Z,75.91
2022-12-20T11:44:27.914Z,75.61
2022-12-20T11:45:57.975Z,75.86
2022-12-20T11:47:43.581Z,76.16
2022-12-20T11:49:15.547Z,76.34
2022-12-20T11:50:45.640Z,76.25
2022-12-20T11:52:06.145Z,76.52
2022-12-20T11:53:27.187Z,76.63
2022-12-20T11:54:42.240Z,76.95
2022-12-20T11:55:52.256Z,77.28
2022-12-20T11:57:07.254Z,77.20
2022-12-20T11:58:26.582Z,77.17
2022-12-20T11:59:49.756Z,77.51
2022-12-20T12:01:09.960Z,77.34
2022-12-20T12:02:22.578Z,77.72
2022-12-20T12:03:26.390Z,78.07
2022-12-20T12:04:55.650Z,78.46
2022-12-20T12:06:21.702Z,78.41
2022-12-20T12:07:34.920Z,78.46
2022-12-20T12:09:02.104Z,78.94
2022-12-20T12:10:45.820Z,79.30
2022-12-20T12:12:38.389Z,79.69
2022-12-20T12:13:44.006Z,80.28
2022-12-20T12:15:17.420Z,80.37
2022-12-20T12:16:35.636Z,80.15
2022-12-20T12:17:57.155Z,80.33
2022-12-20T12:19:02.526Z,80.93
2022-12-20T12:20:30.289Z,80.52
2022-12-20T12:22:11.182Z,80.41
2022-12-20T12:23:24.520Z,80.56
2022-12-20T12:24:42.761Z,80.57
2022-12-20T12:25:47.368Z,80.62
2022-12-20T12:26:52.254Z,80.28
2022-12-20T12:27:55.958Z,80.44
2022-12-20T12:29:13.333Z,80.37
2022-12-20T12:30:18.107Z,80.64
2022-12-20T12:31:57.254Z,80.23
2022-12-20T12:33:13.938Z,79.96
2022-12-20T12:34:32.340Z,79.92
2022-12-20T12:36:01.516Z,80.16
2022-12-20T12:37:50.044Z,79.81
2022-12-20T12:39:20.240Z,79.82
2022-12-20T12:41:30.381Z,79.60
2022-12-20T12:43:18.017Z,80.05
2022-12-20T12:44:34.175Z,79.74
2022-12-20T12:45:53.110Z,79.83
2022-12-20T12:47:06.027Z,79.79
2022-12-20T12:48:56.051Z,80.04
2022-12-20T12:49:59.983Z,80.05
2022-12-20T12:51:05.921Z,80.21
2022-12-20T12:52:42.430Z,80.60
2022-12-20T12:54:04.410Z,80.33
2022-12-20T12:55:48.179Z,80.25
2022-12-20T12:56:53.739Z,80.22
2022-12-20T12:57:59.289Z,80.07
2022-12-20T12:59:20.971Z,80.18
2022-12-20T13:00:55.191Z,80.42
2022-12-20T13:02:04.749Z,80.20
2022-12-20T13:03:17.070Z,80.46
2022-12-20T13:04:20.822Z,80.37
2022-12-20T13:05:34.341Z,80.69
2022-12-20T13:06:38.391Z,80.79
2022-12-20T13:07:43.913Z,80.75
2022-12-20T13:09:41.765Z,80.59
2022-12-20T13:10:58.961Z,80.59
2022-12-20T13:12:37.726Z,80.65
2022-12-20T13:13:41.317Z,80.94
2022-12-20T13:14:49.944Z,81.04
2022-12-20T13:16:09.950Z,81.08
2022-12-20T13:17:16.239Z,80.99
2022-12-20T13:18:25.712Z,81.16
2022-12-20T13:19:29.146Z,81.17
2022-12-20T13:20:36.994Z,80.89
2022-12-20T13:21:53.467Z,81.04
2022-12-20T13:23:09.031Z,81.29
2022-12-20T13:24:58.587Z,81.43
2022-12-20T13:26:55.075Z,81.36
2022-12-20T13:28:18.082Z,81.21
2022-12-20T13:29:36.571Z,81.17
2022-12-20T13:30:40.497Z,81.26
2022-12-20T13:31:47.246Z,81.15
2022-12-20T13:33:03.159Z,81.34
2022-12-20T13:34:40.443Z,81.21
2022-12-20T13:36:00.709Z,81.23
2022-12-20T13:37:27.255Z,81.54
2022-12-20T13:38:46.201Z,81.93
2022-12-20T13:39:50.536Z,81.74
2022-12-20T13:41:02.063Z,81.89
2022-12-20T13:42:38.862Z,81.79
2022-12-20T13:43:48.762Z,81.85
2022-12-20T13:44:55.194Z,82.04
2022-12-20T13:46:11.076Z,81.84
2022-12-20T13:47:39.425Z,82.08
2022-12-20T13:48:56.165Z,82.04
2022-12-20T13:50:26.812Z,82.11
2022-12-20T13:51:31.828Z,82.00
2022-12-20T13:52:44.272Z,82.05
2022-12-20T13:54:05.615Z,82.20
2022-12-20T13:55:31.635Z,82.30
2022-12-20T13:56:51.803Z,82.10
2022-12-20T13:57:55.559Z,82.28
2022-12-20T13:59:07.689Z,82.55
2022-12-20T14:00:25.708Z,82.46
2022-12-20T14:01:31.435Z,82.51
2022-12-20T14:02:43.628Z,82.30
2022-12-20T14:03:48.179Z,82.65
2022-12-20T14:05:02.415Z,82.41
2022-12-20T14:06:11.230Z,82.59
2022-12-20T14:07:18.701Z,82.66
2022-12-20T14:08:29.215Z,82.49
2022-12-20T14:09:38.692Z,82.74
2022-12-20T14:10:42.586Z,82.63
2022-12-20T14:11:49.250Z,82.70
2022-12-20T14:12:53.976Z,82.50
2022-12-20T14:14:05.341Z,82.42
2022-12-20T14:15:34.068Z,82.83
2022-12-20T14:16:39.107Z,82.72
2022-12-20T14:17:44.824Z,82.77
2022-12-20T14:19:05.785Z,82.64
2022-12-20T14:20:32.159Z,83.17
2022-12-20T14:21:43.015Z,83.08
2022-12-20T14:23:06.650Z,83.13
2022-12-20T14:24:22.580Z,82.97
2022-12-20T14:25:51.270Z,83.06
2022-12-20T14:26:55.915Z,82.94
2022-12-20T14:28:00.585Z,82.70
2022-12-20T14:29:16.022Z,82.98
2022-12-20T14:30:32.216Z,83.02
2022-12-20T14:31:43.078Z,83.42
2022-12-20T14:32:50.588Z,83.17
2022-12-20T14:34:06.723Z,83.31
2022-12-20T14:35:21.429Z,83.10
2022-12-20T14:36:25.520Z,83.19
2022-12-20T14:37:39.508Z,83.45
2022-12-20T14:38:47.549Z,83.33
2022-12-20T14:40:10.062Z,83.73
2022-12-20T14:41:34.086Z,83.59
2022-12-20T14:42:40.727Z,83.61
2022-12-20T14:43:44.759Z,83.79
2022-12-20T14:44:48.865Z,84.27
2022-12-20T14:46:20.513Z,84.58
2022-12-20T14:47:28.883Z,84.45
2022-12-20T14:48:33.101Z,84.41
2022-12-20T14:49:40.041Z,84.52
2022-12-20T14:50:54.436Z,84.32
2022-12-20T14:52:21.145Z,84.49
2022-12-20T14:53:30.337Z,84.45
2022-12-20T14:56:00.664Z,84.96
2022-12-20T14:57:12.501Z,85.36
2022-12-20T14:58:32.742Z,85.30
2022-12-20T14:59:36.799Z,85.28
2022-12-20T15:00:59.254Z,85.20
2022-12-20T15:02:35.815Z,85.67
2022-12-20T15:03:51.915Z,85.42
2022-12-20T15:04:56.925Z,85.60
2022-12-20T15:06:01.323Z,85.48
2022-12-20T15:07:05.830Z,85.71
2022-12-20T15:08:18.599Z,85.62
2022-12-20T15:09:22.444Z,85.41
2022-12-20T15:10:26.073Z,85.20
2022-12-20T15:11:30.154Z,85.39
2022-12-20T15:12:37.542Z,85.16